Terminal Aerodrome Forecast
Issued by NWS

Home | Current Version | Previous Version | Text Only | Print | Product List | Glossary On
Versions: 1 2 3 4 5 6 7 8 9 10 11 12
000
FTUS42 TJSJ 151132
TAFIST
TAF
TIST 151132Z 1512/1612 06009KT P6SM FEW030
     FM151400 09012G18KT P6SM FEW025
     FM152200 07009KT P6SM FEW030=

USA.gov is the U.S. government's official web portal to all federal, state and local government web resources and services.